createdAt,value
2023-10-17T00:01:55.747Z,78.17
2023-10-17T00:04:22.810Z,78.47
2023-10-17T00:07:03.474Z,78.91
2023-10-17T00:09:31.564Z,79.40
2023-10-17T00:12:07.085Z,79.48
2023-10-17T00:14:45.547Z,79.64
2023-10-17T00:17:16.954Z,79.64
2023-10-17T00:19:45.370Z,79.65
2023-10-17T00:22:24.717Z,80.13
2023-10-17T00:25:10.108Z,80.47
2023-10-17T00:27:37.708Z,80.07
2023-10-17T00:30:05.598Z,79.95
2023-10-17T00:32:36.124Z,79.38
2023-10-17T00:35:13.706Z,79.24
2023-10-17T00:37:40.652Z,79.27
2023-10-17T00:40:27.707Z,78.99
2023-10-17T00:42:54.760Z,78.95
2023-10-17T00:45:22.030Z,78.31
2023-10-17T00:47:49.060Z,78.82
2023-10-17T00:50:16.079Z,78.41
2023-10-17T00:52:42.907Z,78.65
2023-10-17T00:55:12.415Z,78.59
2023-10-17T00:57:40.394Z,79.15
2023-10-17T01:00:17.076Z,79.30
2023-10-17T01:02:46.830Z,80.78
2023-10-17T01:05:14.023Z,80.68
2023-10-17T01:07:41.144Z,80.81
2023-10-17T01:10:10.843Z,80.49
2023-10-17T01:12:45.818Z,79.56
2023-10-17T01:15:21.347Z,79.45
2023-10-17T01:17:48.988Z,79.19
2023-10-17T01:20:21.871Z,79.45
2023-10-17T01:22:48.964Z,79.45
2023-10-17T01:25:25.746Z,80.12
2023-10-17T01:27:57.936Z,79.70
2023-10-17T01:30:29.823Z,79.24
2023-10-17T01:32:57.797Z,79.01
2023-10-17T01:35:24.995Z,79.58
2023-10-17T01:37:53.168Z,79.52
2023-10-17T01:40:29.192Z,79.09
2023-10-17T01:42:59.543Z,79.47
2023-10-17T01:45:27.436Z,79.96
2023-10-17T01:47:54.479Z,79.85
2023-10-17T01:50:21.677Z,80.19
2023-10-17T01:52:49.725Z,80.39
2023-10-17T01:55:16.694Z,79.92
2023-10-17T01:57:44.908Z,80.04
2023-10-17T02:00:24.720Z,80.75
2023-10-17T02:02:55.755Z,81.15
2023-10-17T02:05:26.224Z,81.50
2023-10-17T02:07:55.357Z,83.25
2023-10-17T02:10:24.924Z,83.61
2023-10-17T02:12:52.734Z,83.47
2023-10-17T02:15:20.256Z,82.89
2023-10-17T02:17:47.862Z,82.80
2023-10-17T02:20:31.354Z,82.40
2023-10-17T02:23:00.246Z,82.14
2023-10-17T02:25:35.797Z,82.59
2023-10-17T02:28:03.193Z,83.41
2023-10-17T02:30:30.347Z,83.55
2023-10-17T02:32:57.619Z,83.16
2023-10-17T02:35:39.792Z,83.54
2023-10-17T02:38:07.175Z,83.64
2023-10-17T02:40:42.855Z,84.19
2023-10-17T02:43:13.085Z,84.15
2023-10-17T02:45:42.231Z,84.32
2023-10-17T02:48:38.152Z,83.89
2023-10-17T02:51:11.864Z,84.32
2023-10-17T02:53:44.075Z,84.27
2023-10-17T02:56:20.355Z,84.62
2023-10-17T02:58:51.742Z,84.12
2023-10-17T03:01:18.925Z,83.54
2023-10-17T03:03:51.742Z,83.55
2023-10-17T03:06:19.885Z,83.85
2023-10-17T03:09:01.204Z,83.74
2023-10-17T03:11:36.258Z,83.62
2023-10-17T03:14:13.404Z,83.39
2023-10-17T03:16:44.110Z,83.23
2023-10-17T03:19:13.747Z,83.12
2023-10-17T03:21:44.481Z,82.48
2023-10-17T03:24:13.725Z,82.39
2023-10-17T03:26:40.690Z,83.15
2023-10-17T03:29:16.625Z,83.11
2023-10-17T03:31:43.709Z,83.34
2023-10-17T03:34:13.541Z,82.68
2023-10-17T03:36:40.346Z,82.15
2023-10-17T03:39:27.305Z,81.87
2023-10-17T03:42:02.070Z,81.77
2023-10-17T03:44:31.964Z,81.49
2023-10-17T03:47:04.932Z,81.28
2023-10-17T03:49:37.312Z,81.57
2023-10-17T03:52:05.596Z,81.24
2023-10-17T03:54:32.472Z,81.69
2023-10-17T03:57:05.547Z,82.03
2023-10-17T03:59:39.517Z,81.93
2023-10-17T04:02:07.123Z,81.70
2023-10-17T04:04:36.780Z,81.27
2023-10-17T04:07:07.081Z,81.18
2023-10-17T04:09:50.445Z,81.27
2023-10-17T04:12:21.910Z,80.88
2023-10-17T04:14:55.507Z,81.14
2023-10-17T04:17:24.997Z,81.54
2023-10-17T04:19:59.527Z,81.62
2023-10-17T04:22:30.259Z,82.60
2023-10-17T04:25:01.526Z,83.15
2023-10-17T04:27:34.788Z,83.32
2023-10-17T04:30:01.675Z,83.75
2023-10-17T04:32:29.854Z,83.95
2023-10-17T04:34:56.699Z,84.46
2023-10-17T04:37:32.520Z,84.67
2023-10-17T04:40:18.460Z,85.08
2023-10-17T04:42:53.656Z,85.62
2023-10-17T04:45:29.330Z,85.75
2023-10-17T04:48:12.028Z,85.53
2023-10-17T04:50:46.362Z,85.88
2023-10-17T04:53:28.136Z,85.85
2023-10-17T04:56:12.180Z,85.60
2023-10-17T04:58:45.003Z,85.10
2023-10-17T05:01:41.307Z,84.88
2023-10-17T05:04:14.481Z,84.77
2023-10-17T05:06:56.592Z,85.03
2023-10-17T05:09:30.134Z,84.32
2023-10-17T05:12:15.776Z,84.35
2023-10-17T05:15:01.174Z,84.10
2023-10-17T05:17:46.698Z,83.84
2023-10-17T05:20:32.635Z,84.26
2023-10-17T05:23:18.307Z,84.68
2023-10-17T05:26:23.447Z,84.65
2023-10-17T05:29:12.981Z,85.04
2023-10-17T05:32:01.984Z,84.16
2023-10-17T05:34:50.344Z,83.96
2023-10-17T05:37:36.033Z,84.04
2023-10-17T05:40:21.925Z,83.08
2023-10-17T05:43:07.943Z,82.73
2023-10-17T05:45:53.790Z,82.36
2023-10-17T05:48:40.610Z,81.65
2023-10-17T05:51:26.310Z,81.32
2023-10-17T05:54:47.419Z,81.45
2023-10-17T05:57:17.086Z,81.21
2023-10-17T06:00:02.710Z,81.05
2023-10-17T06:02:50.515Z,80.51
2023-10-17T06:05:36.331Z,80.44
2023-10-17T06:08:21.940Z,80.57
2023-10-17T06:11:14.362Z,80.20
2023-10-17T06:13:59.936Z,80.19
2023-10-17T06:16:55.966Z,79.56
2023-10-17T06:19:24.856Z,79.74
2023-10-17T06:22:00.944Z,79.58
2023-10-17T06:24:44.136Z,78.57
2023-10-17T06:27:30.073Z,78.89
2023-10-17T06:29:56.806Z,78.68
2023-10-17T06:32:23.531Z,78.11
2023-10-17T06:35:03.916Z,77.44
2023-10-17T06:37:33.559Z,76.83
2023-10-17T06:40:00.648Z,76.52
2023-10-17T06:42:33.871Z,76.63
2023-10-17T06:45:07.807Z,76.99
2023-10-17T06:47:49.054Z,77.14
2023-10-17T06:50:16.447Z,76.68
2023-10-17T06:52:53.094Z,76.59
2023-10-17T06:55:29.117Z,76.03
2023-10-17T06:57:58.524Z,75.67
2023-10-17T07:00:25.418Z,74.88
2023-10-17T07:02:57.492Z,73.50
2023-10-17T07:05:25.224Z,71.85
2023-10-17T07:08:00.689Z,71.43
2023-10-17T07:10:30.242Z,71.73
2023-10-17T07:13:36.786Z,71.33
2023-10-17T07:16:11.983Z,70.06
2023-10-17T07:18:42.317Z,70.02
2023-10-17T07:21:15.296Z,69.57
2023-10-17T07:23:46.480Z,66.98
2023-10-17T07:26:26.391Z,67.04
2023-10-17T07:28:53.670Z,66.65
2023-10-17T07:31:21.003Z,65.78
2023-10-17T07:33:54.075Z,65.65
2023-10-17T07:36:21.044Z,62.95
2023-10-17T07:38:47.963Z,63.86
2023-10-17T07:41:15.128Z,60.54
2023-10-17T07:43:45.133Z,58.04
2023-10-17T07:46:17.857Z,56.29
2023-10-17T07:48:51.274Z,56.03
2023-10-17T07:51:18.781Z,54.49
2023-10-17T07:53:48.277Z,55.82
2023-10-17T07:56:21.875Z,55.42
2023-10-17T07:58:57.527Z,56.19
2023-10-17T08:01:33.021Z,55.12
2023-10-17T08:04:14.493Z,55.46
2023-10-17T08:06:41.671Z,52.59
2023-10-17T08:09:29.666Z,52.93
2023-10-17T08:12:03.769Z,54.38
2023-10-17T08:14:41.407Z,52.83
2023-10-17T08:17:12.198Z,51.58
2023-10-17T08:19:57.995Z,50.37
2023-10-17T08:22:28.208Z,51.44
2023-10-17T08:24:58.438Z,50.22
2023-10-17T08:27:25.246Z,50.12
2023-10-17T08:29:58.523Z,48.65
2023-10-17T08:32:28.316Z,48.30
2023-10-17T08:34:59.136Z,47.70
2023-10-17T08:37:31.211Z,47.05
2023-10-17T08:39:58.128Z,46.93
2023-10-17T08:42:30.822Z,46.56
2023-10-17T08:44:58.585Z,46.63
2023-10-17T08:47:31.761Z,45.08
2023-10-17T08:50:05.815Z,44.60
2023-10-17T08:52:38.579Z,44.95
2023-10-17T08:55:05.633Z,43.70
2023-10-17T08:57:32.784Z,43.89
2023-10-17T09:00:20.293Z,44.29
2023-10-17T09:03:03.250Z,43.11
2023-10-17T09:05:31.174Z,42.94
2023-10-17T09:07:59.277Z,43.22
2023-10-17T09:10:41.532Z,43.37
2023-10-17T09:13:17.691Z,43.16
2023-10-17T09:15:58.313Z,43.35
2023-10-17T09:18:28.764Z,43.36
2023-10-17T09:20:56.610Z,43.74
2023-10-17T09:23:25.022Z,43.81
2023-10-17T09:26:07.828Z,43.24
2023-10-17T09:28:36.447Z,42.76
2023-10-17T09:31:14.188Z,42.41
2023-10-17T09:33:44.229Z,42.10
2023-10-17T09:36:12.088Z,42.33
2023-10-17T09:38:44.553Z,43.16
2023-10-17T09:41:21.166Z,42.36
2023-10-17T09:43:49.924Z,41.79
2023-10-17T09:46:18.719Z,42.07
2023-10-17T09:48:49.571Z,40.67
2023-10-17T09:51:20.525Z,41.50
2023-10-17T09:53:53.652Z,40.48
2023-10-17T09:56:32.395Z,41.74
2023-10-17T09:59:03.441Z,41.10
2023-10-17T10:01:32.063Z,40.58
2023-10-17T10:04:02.261Z,40.26
2023-10-17T10:06:33.380Z,40.31
2023-10-17T10:09:07.067Z,39.30
2023-10-17T10:11:49.475Z,39.51
2023-10-17T10:14:17.075Z,39.30
2023-10-17T10:16:49.969Z,39.09
2023-10-17T10:19:17.358Z,38.51
2023-10-17T10:21:54.731Z,39.07
2023-10-17T10:24:25.092Z,36.34
2023-10-17T10:27:14.861Z,37.77
2023-10-17T10:29:42.210Z,37.88
2023-10-17T10:32:29.206Z,36.86
2023-10-17T10:34:56.483Z,36.01
2023-10-17T10:37:23.397Z,36.20
2023-10-17T10:40:17.376Z,36.04
2023-10-17T10:42:45.085Z,35.52
2023-10-17T10:45:41.495Z,35.16
2023-10-17T10:48:27.226Z,34.37
2023-10-17T10:50:57.227Z,34.29
2023-10-17T10:53:25.593Z,33.59
2023-10-17T10:55:56.398Z,34.37
2023-10-17T10:58:26.731Z,35.21
2023-10-17T11:00:55.310Z,35.28
2023-10-17T11:03:23.156Z,35.23
2023-10-17T11:05:53.255Z,33.34
2023-10-17T11:08:21.142Z,34.83
2023-10-17T11:10:47.951Z,33.68
2023-10-17T11:13:16.180Z,33.53
2023-10-17T11:15:47.086Z,32.54
2023-10-17T11:18:16.054Z,32.89
2023-10-17T11:20:43.163Z,31.99
2023-10-17T11:23:14.210Z,31.41
2023-10-17T11:25:45.972Z,30.20
2023-10-17T11:28:16.879Z,30.29
2023-10-17T11:30:45.871Z,29.38
2023-10-17T11:33:15.231Z,29.69
2023-10-17T11:35:50.071Z,29.29
2023-10-17T11:38:44.141Z,29.15
2023-10-17T11:41:16.321Z,29.30
2023-10-17T11:43:51.770Z,28.07
2023-10-17T11:46:29.608Z,28.38
2023-10-17T11:49:21.569Z,27.82
2023-10-17T11:52:00.441Z,27.04
2023-10-17T11:54:34.659Z,26.51
2023-10-17T11:57:13.280Z,26.23
2023-10-17T11:59:59.276Z,26.72
2023-10-17T12:02:26.578Z,27.45
2023-10-17T12:04:53.869Z,27.60
2023-10-17T12:07:20.812Z,27.94
2023-10-17T12:09:47.692Z,28.11
2023-10-17T12:12:19.638Z,29.06
2023-10-17T12:14:48.095Z,28.57
2023-10-17T12:17:19.678Z,28.73
2023-10-17T12:19:47.652Z,28.42
2023-10-17T12:22:14.450Z,28.03
2023-10-17T12:24:43.306Z,28.69
2023-10-17T12:27:13.174Z,28.53
2023-10-17T12:29:40.409Z,29.04
2023-10-17T12:32:11.346Z,29.70
2023-10-17T12:34:40.548Z,29.87
2023-10-17T12:37:11.279Z,29.88
2023-10-17T12:39:41.075Z,29.95
2023-10-17T12:42:07.938Z,30.24
2023-10-17T12:44:34.705Z,30.90
2023-10-17T12:47:01.630Z,30.60
2023-10-17T12:49:29.084Z,30.64
2023-10-17T12:51:56.339Z,31.25
2023-10-17T12:54:27.185Z,31.37
2023-10-17T12:56:54.637Z,31.41
2023-10-17T12:59:21.483Z,31.56
2023-10-17T13:01:49.487Z,31.74
2023-10-17T13:04:16.648Z,31.57
2023-10-17T13:06:43.595Z,31.28
2023-10-17T13:09:12.134Z,31.65
2023-10-17T13:11:39.432Z,32.12
2023-10-17T13:14:06.255Z,31.90
2023-10-17T13:16:35.241Z,32.08
2023-10-17T13:19:07.314Z,32.33
2023-10-17T13:21:37.041Z,32.24
2023-10-17T13:24:07.634Z,32.52
2023-10-17T13:26:38.001Z,32.72
2023-10-17T13:29:05.523Z,33.09
2023-10-17T13:31:32.528Z,33.52
2023-10-17T13:33:59.607Z,33.95
2023-10-17T13:36:26.568Z,34.06
2023-10-17T13:38:53.821Z,34.38
2023-10-17T13:41:22.407Z,34.62
2023-10-17T13:43:49.369Z,35.12
2023-10-17T13:46:19.186Z,35.36
2023-10-17T13:48:52.032Z,35.70
2023-10-17T13:51:19.888Z,36.12
2023-10-17T13:53:47.210Z,36.75
2023-10-17T13:56:15.043Z,37.13
2023-10-17T13:58:42.640Z,37.49
2023-10-17T14:01:29.757Z,37.60
2023-10-17T14:03:57.584Z,38.00
2023-10-17T14:06:27.750Z,39.24
2023-10-17T14:08:59.893Z,39.58
2023-10-17T14:11:26.780Z,40.62
2023-10-17T14:13:54.900Z,41.20
2023-10-17T14:16:23.100Z,40.93
2023-10-17T14:19:16.092Z,40.75
2023-10-17T14:22:05.404Z,40.68
2023-10-17T14:24:51.236Z,41.70
2023-10-17T14:27:23.715Z,42.07
2023-10-17T14:29:50.865Z,42.49
2023-10-17T14:32:18.685Z,43.32
2023-10-17T14:34:45.849Z,44.04
2023-10-17T14:37:15.111Z,44.19
2023-10-17T14:39:42.680Z,45.38
2023-10-17T14:42:11.227Z,45.87
2023-10-17T14:44:37.923Z,46.92
2023-10-17T14:47:06.738Z,46.29
2023-10-17T14:49:33.406Z,46.69
2023-10-17T14:52:00.196Z,47.56
2023-10-17T14:54:26.975Z,47.72
2023-10-17T14:56:54.133Z,47.61
2023-10-17T14:59:20.854Z,48.89
2023-10-17T15:01:47.870Z,49.05
2023-10-17T15:04:15.356Z,49.74
2023-10-17T15:06:42.413Z,50.62
2023-10-17T15:09:09.641Z,51.45
2023-10-17T15:11:36.483Z,51.37
2023-10-17T15:14:04.673Z,50.91
2023-10-17T15:16:32.260Z,51.04
2023-10-17T15:19:00.318Z,50.67
2023-10-17T15:21:27.482Z,51.16
2023-10-17T15:23:54.388Z,51.36
2023-10-17T15:26:22.142Z,52.31
2023-10-17T15:28:49.452Z,52.11
2023-10-17T15:31:16.402Z,51.62
2023-10-17T15:33:45.179Z,51.99
2023-10-17T15:36:12.787Z,53.51
2023-10-17T15:38:43.854Z,53.54
2023-10-17T15:41:14.870Z,54.08
2023-10-17T15:43:41.663Z,54.91
2023-10-17T15:46:12.762Z,54.94
2023-10-17T15:48:39.682Z,54.59
2023-10-17T15:51:06.440Z,54.15
2023-10-17T15:53:33.587Z,53.74
2023-10-17T15:56:01.152Z,54.01
2023-10-17T15:58:28.823Z,54.47
2023-10-17T16:00:56.368Z,54.92
2023-10-17T16:03:24.758Z,55.12
2023-10-17T16:05:53.552Z,55.26
2023-10-17T16:08:21.329Z,55.25
2023-10-17T16:10:54.464Z,55.52
2023-10-17T16:13:22.282Z,56.00
2023-10-17T16:15:51.092Z,56.15
2023-10-17T16:18:18.628Z,57.57
2023-10-17T16:20:45.482Z,57.38
2023-10-17T16:23:12.317Z,58.16
2023-10-17T16:25:40.911Z,58.31
2023-10-17T16:28:07.855Z,59.39
2023-10-17T16:30:34.695Z,58.77
2023-10-17T16:33:01.648Z,58.47
2023-10-17T16:35:32.516Z,59.01
2023-10-17T16:37:59.319Z,59.82
2023-10-17T16:40:27.084Z,59.22
2023-10-17T16:42:53.876Z,59.17
2023-10-17T16:45:20.967Z,59.84
2023-10-17T16:47:47.876Z,59.92
2023-10-17T16:50:18.475Z,61.14
2023-10-17T16:52:48.194Z,61.81
2023-10-17T16:55:15.321Z,61.24
2023-10-17T16:57:44.385Z,62.06
2023-10-17T17:00:17.282Z,63.01
2023-10-17T17:02:47.456Z,62.86
2023-10-17T17:05:15.369Z,62.66
2023-10-17T17:07:42.192Z,62.83
2023-10-17T17:10:14.261Z,62.23
2023-10-17T17:12:45.814Z,63.27
2023-10-17T17:15:13.054Z,63.21
2023-10-17T17:17:43.995Z,63.05
2023-10-17T17:20:14.268Z,62.85
2023-10-17T17:22:43.662Z,63.69
2023-10-17T17:25:16.776Z,63.70
2023-10-17T17:27:44.010Z,63.64
2023-10-17T17:30:16.409Z,64.24
2023-10-17T17:32:43.887Z,63.69
2023-10-17T17:35:11.970Z,63.80
2023-10-17T17:37:41.736Z,63.75
2023-10-17T17:40:09.034Z,63.33
2023-10-17T17:42:35.992Z,62.88
2023-10-17T17:45:05.748Z,62.80
2023-10-17T17:47:32.749Z,62.63
2023-10-17T17:49:59.963Z,63.13
2023-10-17T17:52:27.099Z,63.23
2023-10-17T17:54:54.070Z,63.19
2023-10-17T17:57:21.423Z,63.32
2023-10-17T17:59:49.833Z,63.38
2023-10-17T18:02:20.407Z,63.50
2023-10-17T18:04:47.424Z,63.94
2023-10-17T18:07:18.085Z,63.19
2023-10-17T18:09:48.012Z,63.11
2023-10-17T18:12:15.870Z,63.20
2023-10-17T18:14:43.159Z,63.38
2023-10-17T18:17:10.676Z,63.80
2023-10-17T18:19:40.288Z,62.92
2023-10-17T18:22:07.069Z,62.84
2023-10-17T18:24:36.233Z,63.10
2023-10-17T18:27:05.293Z,63.33
2023-10-17T18:29:32.473Z,63.79
2023-10-17T18:32:02.366Z,63.24
2023-10-17T18:34:29.161Z,63.37
2023-10-17T18:36:56.579Z,63.34
2023-10-17T18:39:23.801Z,63.61
2023-10-17T18:41:50.813Z,63.41
2023-10-17T18:44:20.318Z,63.18
2023-10-17T18:46:47.684Z,63.44
2023-10-17T18:49:14.682Z,63.44
2023-10-17T18:51:41.561Z,63.47
2023-10-17T18:54:08.526Z,64.52
2023-10-17T18:56:36.130Z,64.07
2023-10-17T18:59:05.197Z,64.47
2023-10-17T19:01:32.695Z,64.15
2023-10-17T19:04:02.318Z,63.91
2023-10-17T19:06:29.228Z,63.42
2023-10-17T19:08:56.124Z,63.03
2023-10-17T19:11:23.847Z,63.05
2023-10-17T19:13:52.332Z,63.17
2023-10-17T19:16:19.792Z,62.59
2023-10-17T19:18:48.264Z,62.92
2023-10-17T19:21:15.153Z,63.21
2023-10-17T19:23:44.355Z,62.99
2023-10-17T19:26:16.096Z,63.42
2023-10-17T19:28:43.772Z,63.12
2023-10-17T19:31:11.108Z,62.81
2023-10-17T19:33:38.391Z,63.23
2023-10-17T19:36:05.746Z,63.98
2023-10-17T19:38:32.602Z,63.78
2023-10-17T19:40:59.412Z,64.23
2023-10-17T19:43:26.804Z,64.24
2023-10-17T19:45:56.891Z,64.25
2023-10-17T19:48:24.045Z,64.86
2023-10-17T19:50:52.218Z,64.71
2023-10-17T19:53:19.374Z,64.67
2023-10-17T19:55:46.940Z,64.31
2023-10-17T19:58:13.772Z,64.37
2023-10-17T20:00:42.375Z,64.76
2023-10-17T20:03:12.554Z,64.55
2023-10-17T20:05:43.587Z,64.81
2023-10-17T20:08:12.857Z,65.70
2023-10-17T20:10:39.539Z,65.51
2023-10-17T20:13:06.820Z,65.70
2023-10-17T20:15:36.099Z,65.81
2023-10-17T20:18:03.244Z,65.86
2023-10-17T20:20:30.049Z,66.53
2023-10-17T20:22:56.859Z,66.06
2023-10-17T20:25:23.790Z,65.91
2023-10-17T20:27:52.899Z,65.61
2023-10-17T20:30:23.923Z,66.20
2023-10-17T20:32:51.953Z,67.39
2023-10-17T20:35:19.261Z,67.54
2023-10-17T20:37:45.987Z,67.47
2023-10-17T20:40:14.931Z,68.22
2023-10-17T20:42:42.479Z,67.39
2023-10-17T20:45:13.235Z,67.55
2023-10-17T20:47:40.872Z,66.92
2023-10-17T20:50:09.742Z,67.85
2023-10-17T20:52:37.910Z,68.87
2023-10-17T20:55:06.240Z,68.43
2023-10-17T20:57:33.348Z,68.69
2023-10-17T21:00:00.164Z,68.54
2023-10-17T21:02:29.724Z,69.19
2023-10-17T21:04:57.072Z,69.21
2023-10-17T21:07:24.120Z,69.01
2023-10-17T21:09:51.218Z,70.18
2023-10-17T21:12:18.339Z,70.44
2023-10-17T21:14:49.412Z,69.25
2023-10-17T21:17:16.983Z,69.58
2023-10-17T21:19:43.871Z,69.98
2023-10-17T21:22:11.637Z,70.46
2023-10-17T21:24:38.715Z,70.67
2023-10-17T21:27:05.466Z,70.33
2023-10-17T21:29:32.885Z,69.12
2023-10-17T21:32:00.327Z,69.46
2023-10-17T21:34:30.031Z,68.98
2023-10-17T21:36:57.188Z,69.66
2023-10-17T21:39:25.737Z,69.44
2023-10-17T21:41:54.370Z,69.64
2023-10-17T21:44:21.786Z,70.15
2023-10-17T21:46:48.660Z,70.55
2023-10-17T21:49:15.390Z,69.99
2023-10-17T21:51:42.169Z,70.64
2023-10-17T21:54:09.006Z,70.95
2023-10-17T21:56:37.644Z,70.51
2023-10-17T21:59:04.373Z,70.69
2023-10-17T22:01:32.599Z,70.89
2023-10-17T22:03:59.450Z,70.72
2023-10-17T22:06:26.494Z,70.85
2023-10-17T22:08:57.127Z,71.34
2023-10-17T22:11:23.896Z,71.26
2023-10-17T22:13:51.021Z,72.03
2023-10-17T22:16:20.099Z,72.51
2023-10-17T22:18:47.864Z,72.46
2023-10-17T22:21:18.867Z,72.26
2023-10-17T22:23:47.425Z,71.53
2023-10-17T22:26:14.622Z,71.58
2023-10-17T22:28:41.882Z,71.12
2023-10-17T22:31:09.210Z,71.73
2023-10-17T22:33:37.027Z,71.39
2023-10-17T22:36:05.040Z,71.14
2023-10-17T22:38:31.950Z,71.22
2023-10-17T22:40:58.764Z,71.45
2023-10-17T22:43:25.532Z,71.12
2023-10-17T22:45:52.627Z,71.12
2023-10-17T22:48:19.528Z,72.39
2023-10-17T22:50:46.371Z,72.46
2023-10-17T22:53:13.793Z,72.40
2023-10-17T22:55:41.111Z,72.33
2023-10-17T22:58:08.321Z,72.20
2023-10-17T23:00:37.568Z,72.59
2023-10-17T23:03:05.716Z,73.64
2023-10-17T23:05:33.583Z,73.44
2023-10-17T23:08:01.450Z,73.70
2023-10-17T23:10:28.298Z,73.58
2023-10-17T23:12:56.143Z,74.02
2023-10-17T23:15:24.042Z,74.06
2023-10-17T23:17:50.941Z,73.50
2023-10-17T23:20:18.241Z,73.45
2023-10-17T23:22:45.671Z,73.62
2023-10-17T23:25:13.195Z,73.17
2023-10-17T23:27:40.605Z,73.44
2023-10-17T23:30:10.116Z,73.31
2023-10-17T23:32:40.666Z,73.79
2023-10-17T23:35:08.889Z,73.96
2023-10-17T23:37:37.040Z,73.62
2023-10-17T23:40:05.300Z,74.40
2023-10-17T23:42:32.930Z,74.29
2023-10-17T23:44:59.631Z,74.32
2023-10-17T23:47:26.364Z,75.07
2023-10-17T23:49:55.206Z,75.41
2023-10-17T23:52:22.465Z,76.15
2023-10-17T23:54:49.404Z,75.68
2023-10-17T23:57:17.889Z,75.40
2023-10-17T23:59:47.610Z,75.44
